ABI146 VVCS-VVPC
Flight info
| Callsign | ABI146 |
|---|---|
| Flight time | N/A |
| Altitude | 23000 |
| Route | BODOD1E BODOD L644 AC W1 BMT W12 NOBID NOBID1N |
| Aircraft | DH8D/M-SDE2E3FGRY/H |
Departure
| Time | N/A |
|---|---|
| Airport | Con Dao Airport (VVCS) |
Arrival
| Time | 2026-05-01 07:35 |
|---|---|
| Airport | Phu Cat Airport (VVPC) |
| Time | Latitude | Longitude | Altitude | Speed | Heading |
|---|---|---|---|---|---|
| 2026-05-01 07:23 | 13.47770 | 108.69971 | 11721 ft | 282 kts | 36° |
| 2026-05-01 07:23 | 13.50882 | 108.72207 | 11084 ft | 261 kts | 40° |
| 2026-05-01 07:24 | 13.52044 | 108.73548 | 10822 ft | 249 kts | 56° |
| 2026-05-01 07:24 | 13.53029 | 108.75055 | 10561 ft | 258 kts | 57° |
| 2026-05-01 07:24 | 13.54045 | 108.76625 | 10293 ft | 265 kts | 57° |
| 2026-05-01 07:24 | 13.55078 | 108.78218 | 10011 ft | 272 kts | 57° |
| 2026-05-01 07:25 | 13.56148 | 108.79860 | 9710 ft | 279 kts | 57° |
| 2026-05-01 07:25 | 13.57232 | 108.81519 | 9399 ft | 281 kts | 57° |
| 2026-05-01 07:25 | 13.58316 | 108.83171 | 9084 ft | 280 kts | 57° |
| 2026-05-01 07:25 | 13.59404 | 108.84829 | 8769 ft | 278 kts | 56° |
| 2026-05-01 07:26 | 13.60471 | 108.86453 | 8465 ft | 274 kts | 56° |
| 2026-05-01 07:26 | 13.61539 | 108.88076 | 8157 ft | 271 kts | 56° |
| 2026-05-01 07:26 | 13.62591 | 108.89678 | 7849 ft | 267 kts | 57° |
| 2026-05-01 07:26 | 13.63601 | 108.91245 | 7548 ft | 261 kts | 57° |
| 2026-05-01 07:27 | 13.64593 | 108.92790 | 7233 ft | 254 kts | 57° |
| 2026-05-01 07:27 | 13.65548 | 108.94273 | 7062 ft | 243 kts | 57° |
| 2026-05-01 07:27 | 13.66471 | 108.95706 | 7012 ft | 241 kts | 57° |
| 2026-05-01 07:27 | 13.67399 | 108.97150 | 6990 ft | 237 kts | 57° |
| 2026-05-01 07:28 | 13.68302 | 108.98560 | 6987 ft | 236 kts | 57° |
| 2026-05-01 07:28 | 13.69213 | 108.99987 | 6995 ft | 239 kts | 57° |
| 2026-05-01 07:28 | 13.69983 | 109.01193 | 6987 ft | 242 kts | 57° |
| 2026-05-01 07:28 | 13.70777 | 109.02436 | 6985 ft | 245 kts | 57° |
| 2026-05-01 07:29 | 13.71721 | 109.03914 | 6983 ft | 248 kts | 57° |
| 2026-05-01 07:29 | 13.72682 | 109.05418 | 6981 ft | 252 kts | 57° |
| 2026-05-01 07:29 | 13.73640 | 109.06919 | 6974 ft | 254 kts | 57° |
| 2026-05-01 07:29 | 13.74623 | 109.08457 | 6962 ft | 257 kts | 57° |
| 2026-05-01 07:30 | 13.75605 | 109.09990 | 6773 ft | 252 kts | 57° |
| 2026-05-01 07:30 | 13.76554 | 109.11462 | 6527 ft | 244 kts | 57° |
| 2026-05-01 07:30 | 13.77648 | 109.12740 | 6238 ft | 230 kts | 35° |
| 2026-05-01 07:30 | 13.79083 | 109.13345 | 5978 ft | 216 kts | 17° |
| 2026-05-01 07:31 | 13.80487 | 109.13717 | 5721 ft | 203 kts | 16° |
| 2026-05-01 07:31 | 13.83825 | 109.12362 | 4825 ft | 165 kts | 320° |
| 2026-05-01 07:32 | 13.85519 | 109.10902 | 3950 ft | 157 kts | 330° |
| 2026-05-01 07:32 | 13.86460 | 109.10349 | 3494 ft | 153 kts | 333° |
| 2026-05-01 07:33 | 13.88283 | 109.09200 | 2329 ft | 176 kts | 327° |
| 2026-05-01 07:33 | 13.89298 | 109.08360 | 1579 ft | 187 kts | 322° |
| 2026-05-01 07:33 | 13.91312 | 109.06976 | 957 ft | 157 kts | 333° |
| 2026-05-01 07:34 | 13.92223 | 109.06405 | 582 ft | 152 kts | 332° |
| 2026-05-01 07:34 | 13.93964 | 109.05250 | 195 ft | 141 kts | 333° |
| 2026-05-01 07:34 | 13.94762 | 109.04720 | 108 ft | 127 kts | 333° |
| 2026-05-01 07:35 | 13.95286 | 109.04374 | 108 ft | 63 kts | 324° |
| 2026-05-01 07:35 | 13.95582 | 109.04170 | 108 ft | 45 kts | 329° |
| 2026-05-01 07:35 | 13.95783 | 109.04038 | 106 ft | 30 kts | 329° |
| 2026-05-01 07:35 | 13.95941 | 109.03928 | 106 ft | 24 kts | 326° |
| 2026-05-01 07:36 | 13.96053 | 109.03861 | 107 ft | 11 kts | 347° |
| 2026-05-01 07:36 | 13.96101 | 109.03881 | 108 ft | 6 kts | 58° |
| 2026-05-01 07:36 | 13.96118 | 109.03911 | 108 ft | 4 kts | 59° |
| 2026-05-01 07:36 | 13.96151 | 109.03968 | 108 ft | 13 kts | 59° |
| 2026-05-01 07:37 | 13.96118 | 109.04079 | 109 ft | 10 kts | 147° |
| 2026-05-01 07:37 | 13.96054 | 109.04121 | 110 ft | 11 kts | 146° |
| 2026-05-01 07:37 | 13.95984 | 109.04171 | 111 ft | 12 kts | 144° |
| 2026-05-01 07:38 | 13.95899 | 109.04224 | 110 ft | 15 kts | 147° |
| 2026-05-01 07:38 | 13.95803 | 109.04291 | 109 ft | 16 kts | 146° |
| 2026-05-01 07:38 | 13.95601 | 109.04424 | 109 ft | 17 kts | 148° |
| 2026-05-01 07:39 | 13.95500 | 109.04494 | 109 ft | 17 kts | 144° |
| 2026-05-01 07:39 | 13.95455 | 109.04572 | 109 ft | 12 kts | 57° |
| 2026-05-01 07:39 | 13.95465 | 109.04652 | 107 ft | 2 kts | 94° |
| 2026-05-01 07:40 | 13.95470 | 109.04660 | 107 ft | 0 kts | 55° |